Time;durP1;ratioP1;P1;durP2;ratioP2;P2;SDS_P1;SDS_P2;PMS_P1;PMS_P2;Temp;Humidity;BMP_temperature;BMP_pressure;BME280_temperature;BME280_humidity;BME280_pressure;Samples;Min_cycle;Max_cycle;Signal;HPM_P1;HPM_P2
2021/03/08 00:01:29;;;;;;;8.68;7.70;;;19.00;19.60;;;;;;5113754;28;20157;-58
2021/03/08 00:03:57;;;;;;;7.33;6.60;;;19.00;19.60;;;;;;5113657;28;20153;-58
2021/03/08 00:06:22;;;;;;;7.93;6.75;;;19.00;19.60;;;;;;5113751;28;20153;-58
2021/03/08 00:08:48;;;;;;;8.40;7.53;;;19.00;19.60;;;;;;5096441;28;20164;-58
2021/03/08 00:11:14;;;;;;;8.37;7.00;;;19.00;19.60;;;;;;5117770;28;20172;-57
2021/03/08 00:13:39;;;;;;;7.17;6.47;;;19.00;19.60;;;;;;5117654;28;20777;-57
2021/03/08 00:16:05;;;;;;;6.93;6.23;;;18.90;19.50;;;;;;5117436;28;20227;-57
2021/03/08 00:18:31;;;;;;;7.83;6.73;;;18.90;19.50;;;;;;5117408;28;20188;-57
2021/03/08 00:20:56;;;;;;;8.40;6.90;;;18.90;19.50;;;;;;5117475;28;20165;-57
2021/03/08 00:23:22;;;;;;;6.53;5.77;;;18.90;19.50;;;;;;5116934;28;20157;-57
2021/03/08 00:25:48;;;;;;;7.03;6.40;;;18.90;19.50;;;;;;5117514;28;20248;-57
2021/03/08 00:28:13;;;;;;;7.23;6.53;;;19.00;19.60;;;;;;5117371;28;20650;-57
2021/03/08 00:30:42;;;;;;;7.27;6.50;;;18.90;19.50;;;;;;5117426;28;20165;-57
2021/03/08 00:33:07;;;;;;;7.65;6.88;;;18.90;19.50;;;;;;5117145;28;20188;-56
2021/03/08 00:35:33;;;;;;;8.03;6.60;;;18.90;19.50;;;;;;5117122;28;20225;-57
2021/03/08 00:37:58;;;;;;;7.90;7.10;;;18.90;19.50;;;;;;5116740;28;20240;-57
2021/03/08 00:40:25;;;;;;;8.90;7.67;;;18.90;19.50;;;;;;5117103;28;20478;-57
2021/03/08 00:42:51;;;;;;;7.10;6.35;;;18.90;19.50;;;;;;5117393;28;20481;-57
2021/03/08 00:45:22;;;;;;;9.20;7.30;;;18.90;19.50;;;;;;5116970;28;20612;-58
2021/03/08 00:47:48;;;;;;;8.35;7.30;;;18.90;19.50;;;;;;5116890;28;20716;-57
2021/03/08 00:50:17;;;;;;;7.80;7.00;;;18.90;19.50;;;;;;5116894;28;20158;-58
2021/03/08 00:52:43;;;;;;;6.90;6.30;;;18.90;19.50;;;;;;5117006;28;20377;-57
2021/03/08 00:55:13;;;;;;;6.38;5.80;;;18.90;19.50;;;;;;5116408;28;20196;-57
2021/03/08 00:57:39;;;;;;;8.07;6.97;;;18.80;19.40;;;;;;5116838;28;20194;-58
2021/03/08 01:00:11;;;;;;;7.80;7.03;;;18.80;19.40;;;;;;5116757;28;20473;-57
2021/03/08 01:02:37;;;;;;;8.57;7.40;;;18.80;19.40;;;;;;5098478;28;20161;-57
2021/03/08 01:05:04;;;;;;;7.45;6.65;;;18.80;19.40;;;;;;5116669;28;20161;-56
2021/03/08 01:07:30;;;;;;;7.50;6.20;;;18.80;19.40;;;;;;5116569;28;20636;-57
2021/03/08 01:09:55;;;;;;;7.57;6.77;;;18.90;19.50;;;;;;5097876;28;20223;-58
2021/03/08 01:12:21;;;;;;;7.40;6.57;;;18.90;19.50;;;;;;5116631;28;20215;-57
2021/03/08 01:14:49;;;;;;;8.23;7.43;;;18.80;19.40;;;;;;5116496;28;20612;-57
2021/03/08 01:17:15;;;;;;;7.07;6.35;;;18.80;19.40;;;;;;5116506;28;20652;-57
2021/03/08 01:19:41;;;;;;;6.80;6.10;;;18.80;20.00;;;;;;5115834;28;20206;-57
2021/03/08 01:22:07;;;;;;;6.57;5.97;;;18.80;19.40;;;;;;5115965;28;20168;-57
2021/03/08 01:24:33;;;;;;;7.87;6.50;;;18.80;19.40;;;;;;5115824;28;20668;-57
2021/03/08 01:27:02;;;;;;;7.20;6.50;;;18.80;19.40;;;;;;5116341;28;20415;-57
2021/03/08 01:29:27;;;;;;;7.90;6.25;;;18.80;19.40;;;;;;5116316;28;20382;-58
2021/03/08 01:31:53;;;;;;;6.27;5.63;;;18.80;19.40;;;;;;5116274;28;20211;-57
2021/03/08 01:34:18;;;;;;;8.03;7.23;;;18.80;19.40;;;;;;5115971;28;20632;-58
2021/03/08 01:36:47;;;;;;;6.77;6.10;;;18.80;19.40;;;;;;5115999;28;20512;-57
2021/03/08 01:39:13;;;;;;;6.43;5.80;;;18.80;19.40;;;;;;5115627;28;20161;-58
2021/03/08 01:41:38;;;;;;;7.60;6.40;;;18.80;19.40;;;;;;5116086;28;20162;-56
2021/03/08 01:44:04;;;;;;;7.60;6.67;;;18.80;19.40;;;;;;5116233;28;20161;-57
2021/03/08 01:46:30;;;;;;;7.93;6.30;;;18.80;19.40;;;;;;5115752;28;20179;-57
2021/03/08 01:48:56;;;;;;;7.20;6.50;;;18.70;19.30;;;;;;5115765;28;20165;-57
2021/03/08 01:51:21;;;;;;;6.27;5.67;;;18.70;19.30;;;;;;5115964;28;20185;-57
2021/03/08 01:53:48;;;;;;;6.87;6.17;;;18.70;19.30;;;;;;5115165;28;20511;-57
2021/03/08 01:56:14;;;;;;;6.70;5.78;;;18.70;19.30;;;;;;5115644;28;20577;-57
2021/03/08 01:58:40;;;;;;;6.18;5.57;;;18.70;19.30;;;;;;5115612;28;20236;-58
2021/03/08 02:01:06;;;;;;;7.75;6.93;;;18.70;19.30;;;;;;5115799;28;20182;-57
2021/03/08 02:03:32;;;;;;;7.70;6.90;;;18.70;19.30;;;;;;5115281;28;20146;-57
2021/03/08 02:05:58;;;;;;;7.07;6.30;;;18.70;19.30;;;;;;5115586;28;20233;-57
2021/03/08 02:08:25;;;;;;;6.97;6.27;;;18.70;19.30;;;;;;5115155;28;20165;-57
2021/03/08 02:10:51;;;;;;;6.15;5.65;;;18.70;19.30;;;;;;5115525;28;20157;-57
2021/03/08 02:13:57;;;;;;;6.60;6.00;;;18.70;19.30;;;;;;5115445;28;20157;-57
2021/03/08 02:16:27;;;;;;;6.50;5.65;;;18.70;19.30;;;;;;5115105;28;20433;-57
2021/03/08 02:19:14;;;;;;;7.40;6.68;;;18.70;19.40;;;;;;5115267;28;20156;-57
2021/03/08 02:22:17;;;;;;;5.97;5.47;;;18.70;19.30;;;;;;5115137;28;20157;-57
2021/03/08 02:25:10;;;;;;;6.93;6.32;;;18.70;19.30;;;;;;5114536;28;20199;-57
2021/03/08 02:27:41;;;;;;;6.78;5.88;;;18.70;19.30;;;;;;5115119;28;20149;-56
2021/03/08 02:30:07;;;;;;;5.75;5.25;;;18.70;19.30;;;;;;5115077;28;20165;-57
2021/03/08 02:32:41;;;;;;;6.83;6.20;;;18.70;19.60;;;;;;5095701;28;20180;-57
2021/03/08 02:35:15;;;;;;;6.22;5.70;;;18.70;19.30;;;;;;5114885;28;20165;-57
2021/03/08 02:37:52;;;;;;;5.90;4.88;;;18.70;19.30;;;;;;5114964;28;20150;-56
2021/03/08 02:40:23;;;;;;;6.18;5.47;;;18.60;19.30;;;;;;5114464;28;20145;-57
2021/03/08 02:42:53;;;;;;;7.50;6.30;;;18.60;19.30;;;;;;5114885;28;20190;-57
2021/03/08 02:45:21;;;;;;;7.25;6.45;;;18.60;19.30;;;;;;5096406;28;20636;-57
2021/03/08 02:47:48;;;;;;;6.22;5.63;;;18.60;19.30;;;;;;5114786;28;20149;-58
2021/03/08 02:50:17;;;;;;;6.63;6.03;;;18.60;19.30;;;;;;5114963;28;20165;-57
2021/03/08 02:52:56;;;;;;;6.80;6.20;;;18.60;19.30;;;;;;5114727;28;20163;-58
2021/03/08 02:55:32;;;;;;;5.32;4.82;;;18.60;19.30;;;;;;5114311;28;20600;-58
2021/03/08 02:58:02;;;;;;;6.72;6.00;;;18.60;19.30;;;;;;5114444;28;20153;-57
2021/03/08 03:00:30;;;;;;;7.00;5.97;;;18.60;19.40;;;;;;5114552;28;20153;-57
2021/03/08 03:02:58;;;;;;;6.70;6.05;;;18.60;19.30;;;;;;5114366;28;20153;-58
2021/03/08 03:05:25;;;;;;;6.50;5.65;;;18.60;19.80;;;;;;5114508;28;20149;-58
2021/03/08 03:07:56;;;;;;;6.63;6.03;;;18.60;19.30;;;;;;5114466;28;20196;-57
2021/03/08 03:10:28;;;;;;;6.82;6.22;;;18.60;19.30;;;;;;5114026;28;20236;-58
2021/03/08 03:12:56;;;;;;;6.80;6.18;;;18.60;19.30;;;;;;5114284;28;20161;-58
2021/03/08 03:15:22;;;;;;;6.05;5.43;;;18.60;19.40;;;;;;5113964;28;20215;-57
2021/03/08 03:17:49;;;;;;;5.30;4.80;;;18.60;19.40;;;;;;5114186;28;20153;-56
2021/03/08 03:20:15;;;;;;;6.68;5.97;;;18.60;19.40;;;;;;5114192;28;20157;-57
2021/03/08 03:22:45;;;;;;;6.20;5.60;;;18.60;19.40;;;;;;5114290;28;20153;-57
2021/03/08 03:25:16;;;;;;;5.85;5.28;;;18.60;20.00;;;;;;5113507;28;20616;-57
2021/03/08 03:27:44;;;;;;;6.13;5.55;;;18.50;19.30;;;;;;5114159;28;20195;-57
2021/03/08 03:30:11;;;;;;;6.07;5.50;;;18.60;19.40;;;;;;5113963;28;20168;-57
2021/03/08 03:32:37;;;;;;;6.53;5.93;;;18.60;19.50;;;;;;5114093;28;20164;-57
2021/03/08 03:35:04;;;;;;;7.27;6.07;;;18.50;19.40;;;;;;5113986;28;20195;-57
2021/03/08 03:37:31;;;;;;;7.35;6.07;;;18.50;19.40;;;;;;5114062;28;20926;-57
2021/03/08 03:39:57;;;;;;;5.15;4.65;;;18.50;19.40;;;;;;5113631;28;20169;-57
2021/03/08 03:42:23;;;;;;;6.20;5.23;;;18.60;19.50;;;;;;5114174;28;20159;-57
2021/03/08 03:44:48;;;;;;;7.00;6.30;;;18.60;19.50;;;;;;5117078;28;20158;-57
2021/03/08 03:47:16;;;;;;;6.30;5.40;;;18.50;19.40;;;;;;5118193;28;20172;-57
2021/03/08 03:49:42;;;;;;;6.13;5.53;;;18.60;20.10;;;;;;5118027;28;20202;-57
2021/03/08 03:52:08;;;;;;;5.97;5.47;;;18.50;19.40;;;;;;5118237;28;20161;-57
2021/03/08 03:54:34;;;;;;;6.45;5.82;;;18.50;19.50;;;;;;5117614;28;20373;-57
2021/03/08 03:57:05;;;;;;;7.03;5.82;;;18.50;19.50;;;;;;5118109;28;20211;-57
2021/03/08 03:59:42;;;;;;;6.22;5.63;;;18.50;19.50;;;;;;5117870;28;20499;-56
2021/03/08 04:02:27;;;;;;;6.95;6.13;;;18.50;19.50;;;;;;5118045;28;20153;-57
2021/03/08 04:05:00;;;;;;;6.07;5.47;;;18.50;19.50;;;;;;5117731;28;20263;-57
2021/03/08 04:07:26;;;;;;;5.95;4.90;;;18.50;19.50;;;;;;5117856;28;20706;-58
2021/03/08 04:09:54;;;;;;;5.50;4.97;;;18.50;19.50;;;;;;5117212;28;20172;-57
2021/03/08 04:12:35;;;;;;;6.38;5.78;;;18.50;19.50;;;;;;5117523;28;20149;-57
2021/03/08 04:15:05;;;;;;;6.03;5.43;;;18.50;19.50;;;;;;5117463;28;20153;-57
2021/03/08 04:17:38;;;;;;;5.43;4.85;;;18.50;19.50;;;;;;5117435;28;20185;-57
2021/03/08 04:20:05;;;;;;;5.38;4.82;;;18.50;19.60;;;;;;5117646;28;20601;-57
2021/03/08 04:22:33;;;;;;;6.22;5.63;;;18.50;19.60;;;;;;5117623;28;20185;-57
2021/03/08 04:24:59;;;;;;;5.57;5.07;;;18.50;19.60;;;;;;5132736;27;20180;-57
2021/03/08 04:27:27;;;;;;;5.93;5.40;;;18.50;19.60;;;;;;5117390;28;20612;-57
2021/03/08 04:29:54;;;;;;;6.28;4.90;;;18.40;20.00;;;;;;5117663;28;20181;-57
2021/03/08 04:32:21;;;;;;;6.38;5.78;;;18.50;19.60;;;;;;5099212;28;20157;-57
2021/03/08 04:34:47;;;;;;;6.25;5.75;;;18.40;20.00;;;;;;5117219;28;20659;-58
2021/03/08 04:37:14;;;;;;;5.95;5.07;;;18.50;19.60;;;;;;5117242;28;20225;-58
2021/03/08 04:39:40;;;;;;;6.88;6.18;;;18.40;19.50;;;;;;5116709;28;20158;-57
2021/03/08 04:42:08;;;;;;;5.20;4.70;;;18.40;19.50;;;;;;5117248;28;20164;-58
2021/03/08 04:44:35;;;;;;;6.60;6.00;;;18.40;20.10;;;;;;5117277;28;20213;-57
2021/03/08 04:47:03;;;;;;;5.85;5.32;;;18.40;19.50;;;;;;5117186;28;20161;-57
2021/03/08 04:49:30;;;;;;;6.30;5.50;;;18.40;20.10;;;;;;5117142;28;20149;-58
2021/03/08 04:51:57;;;;;;;5.82;5.25;;;18.50;19.60;;;;;;5116934;28;20176;-58
2021/03/08 04:54:24;;;;;;;6.97;6.35;;;18.40;19.60;;;;;;5098111;28;20535;-58
2021/03/08 04:56:52;;;;;;;5.50;5.00;;;18.40;19.60;;;;;;5115943;28;20191;-57
2021/03/08 04:59:18;;;;;;;6.43;5.72;;;18.40;19.60;;;;;;5116841;28;20241;-58
2021/03/08 05:01:48;;;;;;;5.90;5.30;;;18.40;19.60;;;;;;5116911;28;20244;-58
2021/03/08 05:04:17;;;;;;;6.20;5.20;;;18.40;19.60;;;;;;5116708;28;20157;-58
2021/03/08 05:06:46;;;;;;;6.93;6.20;;;18.40;19.60;;;;;;5116652;28;20162;-57
2021/03/08 05:09:14;;;;;;;5.40;4.90;;;18.40;19.60;;;;;;5116212;28;20157;-57
2021/03/08 05:11:46;;;;;;;5.50;5.00;;;18.40;19.60;;;;;;5116284;28;20236;-58
2021/03/08 05:14:16;;;;;;;6.10;5.50;;;18.40;19.60;;;;;;5116875;28;20149;-57
2021/03/08 05:16:47;;;;;;;5.75;5.25;;;18.40;19.60;;;;;;5116356;28;20212;-58
2021/03/08 05:19:14;;;;;;;6.60;5.05;;;18.40;19.60;;;;;;5116230;28;20157;-58
2021/03/08 05:21:42;;;;;;;5.68;5.07;;;18.40;19.60;;;;;;5116221;28;20153;-58
2021/03/08 05:24:17;;;;;;;5.60;5.10;;;18.40;19.60;;;;;;5107392;28;20673;-57
2021/03/08 05:26:44;;;;;;;6.38;5.00;;;18.40;19.60;;;;;;5116060;28;20181;-58
2021/03/08 05:29:10;;;;;;;5.70;5.20;;;18.40;19.60;;;;;;5116175;28;20635;-58
2021/03/08 05:31:40;;;;;;;5.27;4.77;;;18.30;19.50;;;;;;5116174;28;20161;-58
2021/03/08 05:34:08;;;;;;;8.30;5.65;;;18.40;19.60;;;;;;5116080;28;20881;-58
2021/03/08 05:36:39;;;;;;;6.22;4.97;;;18.30;19.50;;;;;;5115891;28;20267;-58
2021/03/08 05:39:06;;;;;;;6.15;5.55;;;18.30;19.50;;;;;;5115581;28;20197;-58
2021/03/08 05:42:11;;;;;;;5.78;5.18;;;18.30;19.50;;;;;;5115961;28;20158;-58
2021/03/08 05:44:43;;;;;;;5.53;5.00;;;18.30;19.60;;;;;;5112497;28;20229;-58
2021/03/08 05:47:29;;;;;;;6.68;5.40;;;18.30;19.60;;;;;;5115910;28;20153;-57
2021/03/08 05:50:23;;;;;;;5.88;5.30;;;18.30;19.60;;;;;;5115945;28;20157;-57
2021/03/08 05:53:07;;;;;;;6.32;5.10;;;18.30;19.60;;;;;;5115752;28;20240;-57
2021/03/08 05:56:07;;;;;;;5.47;4.88;;;18.30;19.50;;;;;;5115562;28;20230;-58
2021/03/08 05:58:59;;;;;;;5.78;5.22;;;18.30;19.60;;;;;;5115346;28;20181;-57
2021/03/08 06:01:33;;;;;;;5.78;5.22;;;18.30;19.60;;;;;;5084297;28;20181;-58
2021/03/08 06:04:11;;;;;;;6.15;5.65;;;18.30;19.60;;;;;;5115345;28;20156;-58
2021/03/08 06:07:01;;;;;;;6.57;5.97;;;18.30;20.10;;;;;;5115175;28;20157;-58
2021/03/08 06:09:28;;;;;;;5.57;5.07;;;18.30;19.60;;;;;;5114829;28;20149;-58
2021/03/08 06:12:05;;;;;;;5.50;5.00;;;18.30;19.60;;;;;;5115359;28;20157;-58
2021/03/08 06:14:46;;;;;;;5.05;4.55;;;18.30;19.60;;;;;;5114973;28;20160;-58
2021/03/08 06:17:16;;;;;;;5.40;5.00;;;18.30;19.60;;;;;;5115149;28;20295;-58
2021/03/08 06:19:43;;;;;;;5.03;4.60;;;18.30;19.60;;;;;;5115040;28;20154;-58
2021/03/08 06:22:14;;;;;;;5.78;4.78;;;;;;;;;;5115177;28;20631;-58
2021/03/08 06:24:42;;;;;;;5.30;4.80;;;18.30;19.10;;;;;;5114270;28;20707;-58
2021/03/08 06:27:09;;;;;;;5.93;5.40;;;18.30;19.50;;;;;;5114940;28;20632;-58
2021/03/08 06:29:36;;;;;;;5.10;4.65;;;18.30;19.50;;;;;;5115034;28;20168;-57
2021/03/08 06:32:04;;;;;;;6.40;5.03;;;18.30;19.50;;;;;;5114803;28;20165;-57
2021/03/08 06:34:33;;;;;;;5.30;4.82;;;18.30;19.50;;;;;;5114524;28;20145;-57
2021/03/08 06:37:07;;;;;;;5.25;4.75;;;18.30;19.50;;;;;;5114607;28;20180;-58
2021/03/08 06:39:47;;;;;;;5.65;5.15;;;18.30;19.50;;;;;;5114090;28;20153;-58
2021/03/08 06:42:15;;;;;;;5.40;4.90;;;18.30;19.50;;;;;;5114716;28;20141;-58
2021/03/08 06:44:44;;;;;;;5.15;4.70;;;18.30;19.50;;;;;;5129934;27;20165;-57
2021/03/08 06:47:10;;;;;;;4.60;4.10;;;18.30;19.40;;;;;;5114339;28;20572;-58
2021/03/08 06:49:36;;;;;;;5.63;5.03;;;18.30;19.40;;;;;;5114068;28;20164;-58
2021/03/08 06:52:12;;;;;;;5.93;5.40;;;18.30;19.40;;;;;;5114145;28;20524;-56
2021/03/08 06:55:00;;;;;;;5.00;4.60;;;18.30;19.40;;;;;;5095726;28;20226;-57
2021/03/08 06:57:29;;;;;;;5.47;4.95;;;18.30;19.30;;;;;;5102040;28;20239;-57
2021/03/08 07:00:03;;;;;;;4.57;4.15;;;18.30;19.30;;;;;;5114211;28;20490;-57
2021/03/08 07:02:49;;;;;;;5.10;4.57;;;18.40;19.40;;;;;;5114299;28;20627;-57
2021/03/08 07:05:27;;;;;;;5.40;4.38;;;18.30;19.30;;;;;;5113997;28;20149;-58
2021/03/08 07:07:54;;;;;;;5.35;4.85;;;18.30;19.20;;;;;;5113812;28;20157;-58
2021/03/08 07:10:45;;;;;;;5.50;5.00;;;18.30;19.20;;;;;;5114015;28;20603;-58
2021/03/08 07:13:14;;;;;;;5.28;4.78;;;18.30;19.10;;;;;;5104733;28;20192;-57
2021/03/08 07:15:58;;;;;;;5.20;4.70;;;18.30;19.10;;;;;;5113818;28;20232;-58
2021/03/08 07:18:24;;;;;;;6.10;4.97;;;18.30;19.10;;;;;;5113665;28;20153;-58
2021/03/08 07:21:10;;;;;;;5.50;4.95;;;18.30;19.10;;;;;;5095640;28;20167;-57
2021/03/08 07:23:36;;;;;;;7.13;5.20;;;18.40;19.10;;;;;;5113151;28;20184;-59
2021/03/08 07:26:10;;;;;;;4.63;3.67;;;18.40;19.10;;;;;;5113964;28;20512;-57
2021/03/08 07:28:38;;;;;;;4.72;4.30;;;18.40;19.10;;;;;;5095146;28;20489;-57
2021/03/08 07:31:05;;;;;;;5.35;4.85;;;18.40;19.10;;;;;;5113667;28;20202;-58
2021/03/08 07:33:31;;;;;;;5.45;5.05;;;18.40;19.10;;;;;;5113088;28;20157;-57
2021/03/08 07:35:57;;;;;;;5.90;4.80;;;18.40;19.10;;;;;;5113424;28;20615;-58
2021/03/08 07:38:35;;;;;;;6.13;5.53;;;18.40;19.10;;;;;;5113192;28;20596;-57
2021/03/08 07:41:17;;;;;;;5.00;4.57;;;18.40;19.10;;;;;;5113723;28;20386;-57
2021/03/08 07:43:46;;;;;;;5.38;4.90;;;18.40;19.10;;;;;;5113455;28;20168;-58
2021/03/08 07:46:28;;;;;;;5.53;5.03;;;18.40;19.10;;;;;;5113237;28;20157;-57
2021/03/08 07:48:54;;;;;;;5.47;4.97;;;18.40;19.10;;;;;;5113170;28;20153;-58
2021/03/08 07:51:22;;;;;;;4.65;4.25;;;18.40;19.10;;;;;;5113210;28;20166;-57
2021/03/08 07:53:57;;;;;;;5.25;4.75;;;18.40;19.10;;;;;;5103339;28;20174;-58
2021/03/08 07:56:23;;;;;;;4.88;4.25;;;18.40;19.10;;;;;;5099527;28;20615;-58
2021/03/08 07:58:49;;;;;;;5.40;4.60;;;18.40;19.10;;;;;;5102182;28;20177;-57
2021/03/08 08:01:14;;;;;;;6.00;5.40;;;18.50;19.20;;;;;;5090656;28;20430;-58
2021/03/08 08:03:40;;;;;;;6.57;5.00;;;18.50;19.20;;;;;;5098151;28;20632;-58
2021/03/08 08:06:08;;;;;;;4.43;3.57;;;18.50;19.20;;;;;;5099474;28;20257;-57
2021/03/08 08:08:36;;;;;;;4.93;4.43;;;18.50;19.20;;;;;;5107465;28;20172;-58
2021/03/08 08:11:04;;;;;;;5.43;4.38;;;18.50;19.20;;;;;;5112117;28;20284;-57
2021/03/08 08:13:42;;;;;;;4.63;4.22;;;18.50;19.20;;;;;;5112693;28;20534;-58
2021/03/08 08:16:08;;;;;;;4.78;4.05;;;18.60;19.30;;;;;;5111522;28;20228;-57
2021/03/08 08:18:47;;;;;;;4.85;4.47;;;18.50;19.20;;;;;;5094807;28;20613;-58
2021/03/08 08:21:15;;;;;;;6.20;5.15;;;18.50;19.20;;;;;;5097125;28;20168;-58
2021/03/08 08:23:43;;;;;;;4.45;4.03;;;18.50;19.20;;;;;;5096382;28;20177;-58
2021/03/08 08:26:16;;;;;;;6.00;4.75;;;18.60;19.30;;;;;;5094556;28;20241;-58
2021/03/08 08:28:46;;;;;;;4.60;4.10;;;18.60;19.30;;;;;;5094955;28;20268;-58
2021/03/08 08:31:12;;;;;;;5.25;4.38;;;18.60;19.30;;;;;;5099062;28;20213;-58
2021/03/08 08:33:43;;;;;;;4.50;4.10;;;18.60;19.30;;;;;;5098862;28;20238;-57
2021/03/08 08:36:25;;;;;;;4.88;4.30;;;18.60;19.20;;;;;;5103677;28;20253;-58
2021/03/08 08:38:53;;;;;;;5.25;4.75;;;18.60;19.10;;;;;;5103305;28;20188;-58
2021/03/08 08:41:28;;;;;;;5.03;4.53;;;18.60;19.10;;;;;;5096624;28;20256;-58
2021/03/08 08:44:15;;;;;;;5.90;5.30;;;18.60;19.10;;;;;;5098094;28;20256;-58
2021/03/08 08:46:46;;;;;;;4.90;4.38;;;18.70;19.00;;;;;;5104513;28;20248;-58
2021/03/08 08:49:18;;;;;;;4.57;4.10;;;18.70;19.00;;;;;;5101887;28;20172;-57
2021/03/08 08:51:59;;;;;;;5.35;4.85;;;18.70;19.00;;;;;;5096931;28;20252;-57
2021/03/08 08:54:28;;;;;;;4.18;3.78;;;18.70;18.90;;;;;;5096021;28;20212;-57
2021/03/08 08:57:03;;;;;;;5.55;4.97;;;18.80;18.80;;;;;;5093370;28;20197;-59
2021/03/08 08:59:30;;;;;;;5.75;4.30;;;18.90;18.70;;;;;;5098298;28;20239;-58
2021/03/08 09:02:30;;;;;;;5.03;4.45;;;19.00;18.60;;;;;;5102098;28;20178;-58
2021/03/08 09:04:56;;;;;;;4.85;4.45;;;19.10;18.40;;;;;;5058539;28;20290;-58
2021/03/08 09:07:23;;;;;;;4.67;4.27;;;19.20;18.30;;;;;;5102238;28;20188;-56
2021/03/08 09:09:49;;;;;;;4.75;4.20;;;19.40;18.40;;;;;;5110627;28;20427;-58
2021/03/08 09:12:40;;;;;;;6.40;3.80;;;19.60;18.30;;;;;;5094979;28;20173;-59
2021/03/08 09:15:11;;;;;;;5.75;5.20;;;19.80;17.90;;;;;;5116461;27;20173;-59
2021/03/08 09:17:40;;;;;;;4.53;4.15;;;20.10;17.50;;;;;;5100550;28;20276;-59
2021/03/08 09:20:06;;;;;;;4.80;4.30;;;20.40;17.20;;;;;;5091465;28;20192;-59
2021/03/08 09:22:42;;;;;;;5.05;4.55;;;20.60;16.90;;;;;;5095266;28;20497;-58
2021/03/08 09:25:08;;;;;;;5.50;4.97;;;20.80;16.70;;;;;;5099480;28;20180;-58
2021/03/08 09:27:39;;;;;;;5.70;5.20;;;21.00;16.80;;;;;;5098851;27;20178;-58
2021/03/08 09:30:11;;;;;;;4.70;4.30;;;21.10;16.30;;;;;;5099982;28;20512;-59
2021/03/08 09:32:58;;;;;;;4.82;4.35;;;21.30;16.20;;;;;;5094508;28;20556;-58
2021/03/08 09:35:31;;;;;;;5.40;4.90;;;21.40;16.00;;;;;;5104695;27;20181;-58
2021/03/08 09:38:11;;;;;;;4.30;3.95;;;21.60;15.90;;;;;;5107185;28;20181;-59
2021/03/08 09:40:40;;;;;;;5.35;4.95;;;21.70;15.60;;;;;;5104559;28;20172;-58
2021/03/08 09:43:32;;;;;;;4.90;4.40;;;21.80;15.50;;;;;;5100454;28;20165;-58
2021/03/08 09:46:05;;;;;;;5.20;4.70;;;21.90;15.40;;;;;;5099947;28;20677;-58
2021/03/08 09:48:34;;;;;;;4.60;4.20;;;22.00;15.30;;;;;;5095176;28;20184;-58
2021/03/08 09:51:09;;;;;;;5.00;4.60;;;22.10;15.20;;;;;;5107129;28;20180;-58
2021/03/08 09:53:36;;;;;;;4.60;4.20;;;22.10;15.10;;;;;;5093681;28;20267;-58
2021/03/08 09:56:04;;;;;;;5.20;4.80;;;22.20;15.00;;;;;;5096624;28;20250;-57
2021/03/08 09:58:30;;;;;;;5.10;4.70;;;22.30;15.00;;;;;;5096221;28;20684;-58
2021/03/08 10:00:59;;;;;;;5.47;4.97;;;22.40;15.00;;;;;;5100338;28;20302;-58
2021/03/08 10:03:25;;;;;;;4.40;4.00;;;22.40;14.90;;;;;;5076786;28;20166;-58
2021/03/08 10:05:55;;;;;;;4.68;4.28;;;22.50;14.80;;;;;;5111918;28;20343;-58
2021/03/08 10:08:29;;;;;;;5.05;4.55;;;22.60;14.80;;;;;;5093178;28;20195;-58
2021/03/08 10:10:58;;;;;;;4.90;4.40;;;22.60;15.30;;;;;;5096001;28;20169;-57
2021/03/08 10:13:25;;;;;;;4.22;3.85;;;22.70;14.70;;;;;;5097995;28;20260;-58
2021/03/08 10:15:57;;;;;;;5.05;4.55;;;22.80;14.60;;;;;;5100537;28;20213;-58
2021/03/08 10:18:26;;;;;;;4.85;4.45;;;22.90;14.60;;;;;;5098595;28;20173;-57
2021/03/08 10:20:57;;;;;;;5.18;4.68;;;22.90;14.50;;;;;;5093021;27;20242;-57
2021/03/08 10:23:34;;;;;;;5.05;4.53;;;23.00;14.30;;;;;;5096098;28;20162;-58
2021/03/08 10:26:13;;;;;;;5.10;4.63;;;23.00;14.20;;;;;;5093832;28;20208;-57
2021/03/08 10:28:39;;;;;;;4.82;4.43;;;23.10;14.20;;;;;;5094808;28;20173;-58
2021/03/08 10:31:06;;;;;;;4.87;4.47;;;23.20;14.30;;;;;;5095972;28;20213;-58
2021/03/08 10:33:33;;;;;;;5.57;4.60;;;23.20;14.30;;;;;;5092875;28;20185;-57
2021/03/08 10:36:00;;;;;;;4.30;3.90;;;23.30;14.40;;;;;;5092107;28;20193;-58
2021/03/08 10:38:33;;;;;;;4.43;4.00;;;23.40;14.50;;;;;;5103633;28;20169;-58
2021/03/08 10:41:03;;;;;;;5.13;4.47;;;23.40;14.40;;;;;;5109994;28;20660;-58
2021/03/08 10:43:32;;;;;;;5.22;4.75;;;23.50;14.30;;;;;;5102271;28;20241;-57
2021/03/08 10:46:00;;;;;;;5.03;4.63;;;23.50;14.10;;;;;;5100174;28;20186;-58
2021/03/08 10:48:27;;;;;;;5.10;4.60;;;23.60;14.00;;;;;;5084755;28;20264;-58
2021/03/08 10:50:58;;;;;;;4.63;4.22;;;23.70;14.60;;;;;;5096872;28;20158;-58
2021/03/08 10:53:24;;;;;;;5.32;4.90;;;23.80;13.90;;;;;;5073944;28;20227;-58
2021/03/08 10:55:51;;;;;;;4.60;4.10;;;23.80;13.90;;;;;;5100994;28;20197;-57
2021/03/08 10:58:32;;;;;;;5.53;4.53;;;23.90;13.80;;;;;;5091428;28;20181;-58
2021/03/08 11:01:07;;;;;;;5.68;4.90;;;24.00;13.80;;;;;;5110077;28;20265;-58
2021/03/08 11:03:36;;;;;;;4.80;4.40;;;24.10;13.70;;;;;;5117530;27;20176;-58
2021/03/08 11:06:10;;;;;;;5.18;4.65;;;24.10;13.60;;;;;;5102318;28;20207;-58
2021/03/08 11:08:38;;;;;;;4.68;4.25;;;24.20;13.60;;;;;;5091633;28;20181;-57
2021/03/08 11:11:34;;;;;;;4.40;4.00;;;24.30;13.50;;;;;;5100460;28;20636;-56
2021/03/08 11:14:04;;;;;;;4.57;4.17;;;24.40;14.00;;;;;;5088589;28;20207;-57
2021/03/08 11:16:32;;;;;;;5.40;4.90;;;24.50;13.40;;;;;;5092384;28;20520;-57
2021/03/08 11:19:17;;;;;;;6.50;4.70;;;24.50;13.20;;;;;;5098266;28;20402;-57
2021/03/08 11:21:59;;;;;;;6.13;4.43;;;24.60;13.20;;;;;;5111823;28;20197;-57
2021/03/08 11:24:30;;;;;;;5.32;4.80;;;24.70;13.10;;;;;;5110835;28;20179;-57
2021/03/08 11:27:18;;;;;;;4.82;4.43;;;24.70;13.10;;;;;;5088615;27;20703;-57
2021/03/08 11:30:01;;;;;;;5.18;4.63;;;24.80;13.00;;;;;;5104893;28;20219;-57
2021/03/08 11:32:28;;;;;;;4.97;4.43;;;24.90;13.00;;;;;;5109674;28;20210;-57
2021/03/08 11:34:55;;;;;;;6.22;4.93;;;24.90;12.90;;;;;;5112520;28;20501;-57
2021/03/08 11:37:23;;;;;;;5.60;5.10;;;25.00;12.90;;;;;;5112441;28;20284;-57
2021/03/08 11:39:58;;;;;;;4.03;3.73;;;25.00;12.80;;;;;;5111660;28;20816;-57
2021/03/08 11:42:28;;;;;;;4.67;4.27;;;25.10;12.80;;;;;;5110900;28;20437;-57
2021/03/08 11:44:57;;;;;;;5.28;4.78;;;25.20;12.80;;;;;;5110795;28;20426;-57
2021/03/08 11:47:23;;;;;;;5.90;5.30;;;25.20;12.70;;;;;;5092632;28;20222;-56
2021/03/08 11:49:49;;;;;;;5.57;5.07;;;25.20;12.60;;;;;;5111428;28;20504;-57
2021/03/08 11:52:16;;;;;;;4.50;4.10;;;25.20;12.60;;;;;;5112174;28;20870;-57
2021/03/08 11:54:42;;;;;;;4.33;3.93;;;25.30;12.60;;;;;;5110263;28;20418;-56
2021/03/08 11:57:09;;;;;;;4.22;3.88;;;25.30;13.10;;;;;;5111934;28;20454;-56
2021/03/08 11:59:36;;;;;;;4.70;4.27;;;25.30;12.50;;;;;;5112282;28;20188;-57
2021/03/08 12:02:02;;;;;;;4.50;4.00;;;25.40;12.40;;;;;;5123362;28;20781;-57
2021/03/08 12:04:28;;;;;;;4.13;3.83;;;24.90;12.00;;;;;;5113871;27;20502;-57
2021/03/08 12:06:53;;;;;;;5.10;4.60;;;25.50;12.20;;;;;;5116972;28;20458;-56
2021/03/08 12:09:20;;;;;;;4.87;4.37;;;25.60;12.20;;;;;;5114908;27;20393;-57
2021/03/08 12:11:46;;;;;;;4.83;4.37;;;25.60;12.00;;;;;;5107681;28;20185;-56
2021/03/08 12:14:11;;;;;;;4.30;3.90;;;25.70;11.80;;;;;;5115405;28;20388;-57
2021/03/08 12:16:39;;;;;;;3.83;3.47;;;25.80;11.80;;;;;;5116307;27;20553;-57
2021/03/08 12:19:05;;;;;;;4.57;4.10;;;25.90;11.90;;;;;;5098555;27;20261;-57
2021/03/08 12:21:31;;;;;;;4.33;4.00;;;26.00;11.90;;;;;;5123214;27;20491;-56
2021/03/08 12:23:57;;;;;;;4.13;3.77;;;26.10;12.00;;;;;;5109310;27;20181;-56
2021/03/08 12:26:24;;;;;;;4.70;4.30;;;26.20;12.10;;;;;;5109570;27;20910;-57
2021/03/08 12:28:50;;;;;;;5.00;4.53;;;26.30;11.60;;;;;;5104124;27;20412;-57
2021/03/08 12:31:16;;;;;;;3.87;3.50;;;26.30;11.40;;;;;;5115627;28;20415;-57
2021/03/08 12:33:42;;;;;;;4.70;4.30;;;26.40;11.30;;;;;;5107997;28;20442;-58
2021/03/08 12:36:08;;;;;;;4.00;3.70;;;26.50;11.20;;;;;;5095747;28;20459;-57
2021/03/08 12:38:37;;;;;;;3.97;3.67;;;26.50;11.10;;;;;;5103164;27;20636;-57
2021/03/08 12:41:04;;;;;;;4.17;3.70;;;26.60;11.00;;;;;;5107773;28;20502;-57
2021/03/08 12:43:32;;;;;;;4.17;3.87;;;26.70;11.00;;;;;;5108158;28;20766;-57
2021/03/08 12:45:57;;;;;;;4.20;3.87;;;26.80;10.80;;;;;;5098098;27;20409;-57
2021/03/08 12:48:25;;;;;;;4.03;3.70;;;26.90;10.60;;;;;;5080861;27;20405;-57
2021/03/08 12:50:51;;;;;;;3.90;3.53;;;27.00;10.50;;;;;;5105419;27;20176;-57
2021/03/08 12:53:19;;;;;;;5.00;4.03;;;27.10;10.40;;;;;;5101893;28;20772;-57
2021/03/08 12:55:45;;;;;;;4.30;4.00;;;27.20;10.20;;;;;;5102527;28;20170;-57
2021/03/08 12:58:10;;;;;;;3.30;3.00;;;27.20;10.00;;;;;;5106475;28;20522;-57
2021/03/08 13:00:36;;;;;;;4.60;4.10;;;27.30;9.90;;;;;;5111659;27;20177;-57
2021/03/08 13:03:02;;;;;;;4.30;3.77;;;27.40;9.90;;;;;;5106327;28;20173;-57
2021/03/08 13:05:28;;;;;;;3.70;3.17;;;27.50;9.80;;;;;;5102371;27;20182;-56